createdAt,value
2019-03-22T00:00:21.580Z,96.60
2019-03-22T00:02:47.822Z,97.10
2019-03-22T00:05:14.312Z,97.10
2019-03-22T00:07:40.666Z,97.40
2019-03-22T00:10:07.374Z,98.00
2019-03-22T00:12:33.847Z,98.10
2019-03-22T00:15:03.553Z,98.60
2019-03-22T00:17:29.814Z,98.70
2019-03-22T00:19:58.485Z,98.20
2019-03-22T00:22:24.793Z,97.70
2019-03-22T00:24:51.043Z,97.60
2019-03-22T00:27:17.483Z,97.60
2019-03-22T00:29:44.193Z,97.50
2019-03-22T00:32:10.487Z,97.40
2019-03-22T00:34:36.727Z,97.60
2019-03-22T00:37:03.022Z,97.50
2019-03-22T00:39:29.388Z,97.30
2019-03-22T00:41:55.707Z,97.50
2019-03-22T00:44:22.048Z,97.70
2019-03-22T00:46:48.292Z,97.50
2019-03-22T00:49:14.542Z,97.30
2019-03-22T00:51:40.825Z,97.00
2019-03-22T00:54:07.068Z,97.20
2019-03-22T00:56:39.971Z,97.40
2019-03-22T00:59:06.250Z,97.40
2019-03-22T01:01:32.508Z,97.50
2019-03-22T01:03:58.768Z,97.50
2019-03-22T01:06:25.099Z,98.00
2019-03-22T01:08:51.952Z,98.50
2019-03-22T01:11:18.208Z,98.30
2019-03-22T01:13:44.485Z,98.00
2019-03-22T01:16:10.846Z,97.80
2019-03-22T01:18:38.857Z,97.60
2019-03-22T01:21:05.135Z,97.90
2019-03-22T01:23:31.338Z,98.10
2019-03-22T01:25:57.567Z,98.30
2019-03-22T01:28:24.104Z,98.10
2019-03-22T01:30:53.536Z,97.60
2019-03-22T01:33:19.792Z,97.20
2019-03-22T01:35:46.097Z,97.10
2019-03-22T01:38:12.355Z,97.20
2019-03-22T01:40:38.649Z,97.20
2019-03-22T01:43:04.920Z,97.20
2019-03-22T01:45:31.331Z,97.20
2019-03-22T01:47:57.730Z,97.30
2019-03-22T01:50:24.076Z,97.80
2019-03-22T01:52:50.329Z,98.50
2019-03-22T01:55:16.910Z,99.10
2019-03-22T01:57:53.238Z,99.20
2019-03-22T02:00:17.193Z,99.10
2019-03-22T02:02:44.002Z,99.00
2019-03-22T02:05:10.456Z,98.70
2019-03-22T02:07:38.516Z,98.20
2019-03-22T02:10:07.634Z,98.00
2019-03-22T02:12:33.924Z,97.90
2019-03-22T02:15:00.369Z,98.00
2019-03-22T02:17:28.633Z,98.10
2019-03-22T02:19:54.896Z,98.20
2019-03-22T02:22:23.904Z,98.40
2019-03-22T02:24:50.083Z,98.30
2019-03-22T02:27:16.325Z,98.60
2019-03-22T02:29:45.402Z,99.10
2019-03-22T02:32:11.654Z,99.00
2019-03-22T02:34:37.917Z,99.40
2019-03-22T02:37:04.161Z,99.50
2019-03-22T02:39:30.556Z,99.60
2019-03-22T02:41:59.037Z,99.30
2019-03-22T02:44:25.431Z,98.90
2019-03-22T02:46:51.920Z,98.30
2019-03-22T02:49:18.164Z,97.90
2019-03-22T02:51:44.547Z,98.00
2019-03-22T02:54:12.398Z,97.90
2019-03-22T02:56:38.767Z,97.70
2019-03-22T02:59:05.114Z,97.60
2019-03-22T03:01:31.551Z,97.20
2019-03-22T03:03:57.905Z,97.50
2019-03-22T03:06:24.294Z,97.40
2019-03-22T03:08:50.654Z,97.90
2019-03-22T03:11:16.956Z,98.40
2019-03-22T03:13:43.273Z,98.30
2019-03-22T03:16:09.611Z,98.20
2019-03-22T03:18:35.971Z,97.90
2019-03-22T03:21:02.338Z,97.80
2019-03-22T03:23:28.705Z,97.80
2019-03-22T03:25:54.967Z,97.70
2019-03-22T03:28:35.658Z,97.80
2019-03-22T03:30:49.423Z,97.90
2019-03-22T03:33:15.675Z,98.60
2019-03-22T03:35:41.945Z,98.90
2019-03-22T03:38:08.315Z,98.80
2019-03-22T03:40:35.008Z,98.80
2019-03-22T03:43:01.505Z,98.60
2019-03-22T03:45:35.786Z,98.30
2019-03-22T03:48:07.552Z,98.20
2019-03-22T03:50:33.932Z,98.00
2019-03-22T03:53:02.368Z,97.80
2019-03-22T03:55:29.650Z,97.80
2019-03-22T03:57:56.110Z,97.70
2019-03-22T04:00:22.427Z,97.70
2019-03-22T04:02:48.710Z,97.70
2019-03-22T04:05:16.832Z,97.50
2019-03-22T04:07:43.199Z,97.50
2019-03-22T04:10:09.665Z,97.50
2019-03-22T04:12:35.926Z,97.70
2019-03-22T04:15:04.193Z,97.20
2019-03-22T04:17:30.434Z,97.40
2019-03-22T04:19:56.748Z,97.60
2019-03-22T04:22:23.003Z,98.30
2019-03-22T04:24:49.368Z,99.00
2019-03-22T04:27:15.658Z,99.20
2019-03-22T04:29:41.913Z,99.10
2019-03-22T04:32:08.279Z,98.80
2019-03-22T04:34:36.924Z,98.40
2019-03-22T04:37:03.268Z,98.00
2019-03-22T04:39:31.513Z,97.60
2019-03-22T04:41:57.781Z,97.30
2019-03-22T04:44:24.164Z,97.00
2019-03-22T04:46:50.722Z,97.00
2019-03-22T04:49:19.408Z,97.50
2019-03-22T04:51:45.838Z,97.40
2019-03-22T04:54:16.247Z,97.40
2019-03-22T04:56:43.211Z,97.40
2019-03-22T04:59:19.031Z,97.30
2019-03-22T05:01:52.576Z,97.20
2019-03-22T05:04:21.389Z,96.80
2019-03-22T05:06:50.464Z,96.80
2019-03-22T05:09:17.058Z,97.20
2019-03-22T05:11:46.308Z,97.40
2019-03-22T05:14:15.915Z,97.60
2019-03-22T05:16:45.828Z,97.50
2019-03-22T05:19:13.173Z,97.70
2019-03-22T05:21:41.107Z,97.50
2019-03-22T05:24:09.066Z,97.40
2019-03-22T05:26:37.845Z,97.60
2019-03-22T05:29:30.491Z,97.80
2019-03-22T05:31:56.729Z,97.80
2019-03-22T05:34:22.999Z,98.10
2019-03-22T05:36:49.318Z,98.20
2019-03-22T05:39:15.577Z,98.30
2019-03-22T05:41:42.021Z,98.30
2019-03-22T05:44:08.281Z,98.00
2019-03-22T05:46:34.819Z,97.60
2019-03-22T05:49:01.106Z,97.50
2019-03-22T05:51:27.477Z,97.40
2019-03-22T05:53:53.718Z,97.30
2019-03-22T05:56:20.034Z,97.20
2019-03-22T05:58:46.262Z,96.90
2019-03-22T06:01:12.747Z,97.30
2019-03-22T06:03:39.008Z,97.90
2019-03-22T06:06:05.255Z,98.00
2019-03-22T06:08:31.528Z,98.00
2019-03-22T06:10:57.807Z,98.00
2019-03-22T06:13:27.499Z,97.60
2019-03-22T06:15:55.628Z,97.20
2019-03-22T06:18:22.103Z,97.20
2019-03-22T06:20:48.388Z,97.10
2019-03-22T06:23:14.748Z,97.10
2019-03-22T06:25:41.253Z,96.90
2019-03-22T06:28:07.593Z,96.60
2019-03-22T06:30:33.849Z,96.40
2019-03-22T06:33:00.229Z,95.60
2019-03-22T06:35:26.577Z,95.50
2019-03-22T06:37:52.850Z,95.50
2019-03-22T06:40:22.020Z,95.50
2019-03-22T06:42:48.277Z,95.30
2019-03-22T06:45:14.549Z,95.30
2019-03-22T06:47:40.856Z,95.10
2019-03-22T06:50:07.523Z,99.90
2019-03-22T06:52:33.902Z,99.90
2019-03-22T06:55:00.151Z,99.90
2019-03-22T06:57:26.403Z,99.90
2019-03-22T06:59:52.855Z,99.90
2019-03-22T07:02:19.339Z,97.40
2019-03-22T07:04:45.638Z,96.20
2019-03-22T07:07:12.285Z,97.20
2019-03-22T07:09:38.550Z,96.70
2019-03-22T07:12:04.914Z,96.00
2019-03-22T07:14:31.370Z,96.40
2019-03-22T07:16:58.968Z,96.00
2019-03-22T07:19:27.172Z,96.10
2019-03-22T07:21:53.454Z,95.60
2019-03-22T07:24:19.726Z,95.80
2019-03-22T07:26:46.081Z,95.30
2019-03-22T07:29:12.364Z,95.10
2019-03-22T07:31:38.676Z,94.80
2019-03-22T07:34:05.010Z,94.60
2019-03-22T07:36:31.368Z,94.60
2019-03-22T07:38:57.711Z,94.60
2019-03-22T07:41:24.074Z,94.60
2019-03-22T07:43:50.318Z,94.90
2019-03-22T07:46:16.639Z,94.70
2019-03-22T07:48:42.883Z,94.90
2019-03-22T07:51:09.130Z,95.00
2019-03-22T07:53:35.712Z,95.30
2019-03-22T07:56:02.054Z,95.60
2019-03-22T07:58:28.510Z,95.40
2019-03-22T08:00:54.839Z,95.40
2019-03-22T08:03:21.236Z,95.30
2019-03-22T08:05:51.544Z,95.20
2019-03-22T08:08:15.504Z,95.00
2019-03-22T08:10:41.818Z,95.00
2019-03-22T08:13:08.043Z,95.00
2019-03-22T08:15:34.341Z,95.00
2019-03-22T08:18:00.701Z,95.10
2019-03-22T08:20:27.155Z,95.20
2019-03-22T08:22:53.915Z,95.30
2019-03-22T08:25:20.188Z,95.30
2019-03-22T08:27:46.567Z,96.40
2019-03-22T08:30:12.945Z,96.60
2019-03-22T08:32:39.192Z,96.80
2019-03-22T08:35:05.576Z,96.20
2019-03-22T08:37:31.983Z,96.60
2019-03-22T08:39:59.014Z,96.10
2019-03-22T08:42:25.366Z,95.40
2019-03-22T08:44:51.669Z,95.10
2019-03-22T08:47:18.213Z,95.50
2019-03-22T08:49:44.723Z,95.60
2019-03-22T08:52:11.288Z,95.50
2019-03-22T08:54:38.461Z,94.90
2019-03-22T08:57:04.819Z,94.90
2019-03-22T08:59:31.284Z,95.20
2019-03-22T09:01:58.750Z,95.20
2019-03-22T09:04:24.990Z,95.30
2019-03-22T09:06:51.260Z,95.40
2019-03-22T09:09:19.514Z,95.90
2019-03-22T09:11:45.906Z,95.90
2019-03-22T09:14:12.268Z,95.60
2019-03-22T09:16:38.764Z,95.50
2019-03-22T09:19:05.140Z,95.80
2019-03-22T09:21:31.461Z,95.90
2019-03-22T09:24:00.171Z,95.50
2019-03-22T09:26:26.546Z,95.40
2019-03-22T09:28:53.006Z,95.90
2019-03-22T09:31:21.624Z,95.80
2019-03-22T09:33:48.023Z,95.30
2019-03-22T09:36:14.280Z,94.60
2019-03-22T09:38:40.595Z,94.30
2019-03-22T09:41:06.960Z,94.00
2019-03-22T09:43:33.334Z,94.40
2019-03-22T09:45:59.960Z,94.60
2019-03-22T09:48:26.273Z,94.60
2019-03-22T09:50:52.633Z,94.60
2019-03-22T09:53:18.972Z,94.60
2019-03-22T09:55:45.496Z,94.70
2019-03-22T09:58:11.792Z,95.20
2019-03-22T10:00:38.117Z,97.00
2019-03-22T10:03:06.865Z,98.20
2019-03-22T10:05:33.095Z,98.20
2019-03-22T10:07:59.356Z,97.70
2019-03-22T10:10:25.846Z,97.30
2019-03-22T10:12:52.191Z,98.00
2019-03-22T10:15:18.594Z,98.20
2019-03-22T10:17:44.921Z,98.00
2019-03-22T10:20:11.970Z,97.70
2019-03-22T10:22:38.318Z,97.50
2019-03-22T10:25:06.350Z,97.40
2019-03-22T10:27:32.575Z,97.30
2019-03-22T10:29:58.854Z,96.10
2019-03-22T10:32:25.151Z,97.00
2019-03-22T10:34:51.511Z,97.80
2019-03-22T10:37:17.734Z,97.70
2019-03-22T10:39:44.176Z,96.60
2019-03-22T10:42:10.934Z,95.50
2019-03-22T10:44:39.351Z,95.10
2019-03-22T10:47:05.372Z,95.60
2019-03-22T10:49:31.780Z,95.60
2019-03-22T10:51:58.318Z,95.90
2019-03-22T10:54:26.651Z,95.90
2019-03-22T10:56:52.883Z,96.50
2019-03-22T10:59:19.186Z,96.70
2019-03-22T11:01:52.308Z,96.10
2019-03-22T11:04:13.631Z,95.90
2019-03-22T11:06:39.925Z,95.30
2019-03-22T11:09:07.214Z,95.00
2019-03-22T11:11:33.487Z,94.30
2019-03-22T11:13:59.753Z,94.80
2019-03-22T11:16:26.143Z,94.70
2019-03-22T11:18:52.416Z,94.20
2019-03-22T11:21:18.749Z,93.90
2019-03-22T11:23:45.101Z,94.10
2019-03-22T11:26:11.685Z,93.50
2019-03-22T11:28:38.185Z,93.20
2019-03-22T11:31:06.481Z,93.00
2019-03-22T11:33:32.735Z,92.60
2019-03-22T11:35:59.121Z,92.90
2019-03-22T11:38:27.761Z,94.30
2019-03-22T11:40:54.141Z,94.20
2019-03-22T11:43:20.352Z,92.70
2019-03-22T11:45:46.844Z,93.20
2019-03-22T11:48:13.110Z,93.00
2019-03-22T11:50:39.353Z,93.00
2019-03-22T11:53:05.852Z,92.50
2019-03-22T11:55:32.349Z,92.20
2019-03-22T11:57:58.710Z,92.40
2019-03-22T12:00:25.959Z,91.90
2019-03-22T12:02:52.531Z,91.80
2019-03-22T12:05:20.047Z,91.50
2019-03-22T12:07:46.445Z,91.70
2019-03-22T12:10:16.620Z,91.80
2019-03-22T12:12:43.106Z,91.80
2019-03-22T12:15:11.639Z,91.30
2019-03-22T12:17:38.529Z,91.20
2019-03-22T12:20:07.921Z,91.60
2019-03-22T12:22:34.312Z,91.30
2019-03-22T12:25:00.669Z,91.40
2019-03-22T12:27:36.071Z,91.60
2019-03-22T12:29:55.239Z,92.90
2019-03-22T12:32:21.513Z,93.20
2019-03-22T12:34:47.755Z,92.70
2019-03-22T12:37:14.004Z,92.40
2019-03-22T12:39:41.914Z,91.60
2019-03-22T12:42:11.305Z,91.00
2019-03-22T12:44:38.341Z,91.30
2019-03-22T12:47:04.910Z,91.20
2019-03-22T12:49:32.022Z,91.20
2019-03-22T12:51:58.610Z,91.00
2019-03-22T12:54:24.973Z,91.60
2019-03-22T12:56:51.429Z,91.70
2019-03-22T12:59:17.786Z,91.60
2019-03-22T13:01:44.142Z,91.70
2019-03-22T13:04:10.829Z,91.70
2019-03-22T13:06:37.369Z,90.90
2019-03-22T13:09:06.529Z,90.90
2019-03-22T13:11:32.894Z,90.70
2019-03-22T13:13:59.148Z,90.80
2019-03-22T13:16:25.731Z,90.90
2019-03-22T13:18:52.098Z,90.90
2019-03-22T13:21:18.391Z,90.10
2019-03-22T13:23:47.622Z,90.20
2019-03-22T13:26:13.942Z,89.70
2019-03-22T13:28:40.450Z,90.00
2019-03-22T13:31:06.796Z,90.40
2019-03-22T13:33:33.089Z,90.40
2019-03-22T13:35:59.350Z,90.00
2019-03-22T13:38:25.745Z,90.00
2019-03-22T13:40:52.059Z,90.10
2019-03-22T13:43:18.519Z,89.40
2019-03-22T13:45:44.849Z,88.80
2019-03-22T13:48:11.391Z,88.70
2019-03-22T13:50:37.660Z,88.00
2019-03-22T13:53:04.026Z,88.50
2019-03-22T13:55:30.364Z,88.70
2019-03-22T13:57:56.703Z,88.20
2019-03-22T14:00:23.090Z,88.40
2019-03-22T14:02:49.575Z,87.80
2019-03-22T14:05:15.957Z,87.60
2019-03-22T14:07:42.297Z,87.20
2019-03-22T14:10:26.373Z,87.30
2019-03-22T14:12:56.904Z,88.00
2019-03-22T14:15:23.181Z,88.10
2019-03-22T14:17:49.444Z,87.90
2019-03-22T14:20:15.710Z,88.00
2019-03-22T14:22:43.506Z,88.40
2019-03-22T14:25:09.971Z,89.00
2019-03-22T14:27:36.315Z,88.40
2019-03-22T14:30:05.055Z,87.30
2019-03-22T14:32:31.401Z,87.10
2019-03-22T14:34:57.747Z,87.90
2019-03-22T14:37:24.041Z,86.80
2019-03-22T14:39:50.428Z,86.20
2019-03-22T14:42:18.624Z,85.70
2019-03-22T14:44:44.907Z,85.90
2019-03-22T14:47:12.962Z,85.00
2019-03-22T14:49:39.405Z,84.40
2019-03-22T14:52:05.953Z,84.90
2019-03-22T14:54:32.255Z,85.40
2019-03-22T14:56:58.910Z,85.70
2019-03-22T14:59:27.347Z,85.20
2019-03-22T15:01:55.482Z,84.60
2019-03-22T15:04:21.964Z,84.80
2019-03-22T15:06:48.219Z,85.00
2019-03-22T15:09:14.477Z,84.50
2019-03-22T15:11:40.949Z,84.80
2019-03-22T15:14:12.332Z,84.20
2019-03-22T15:16:46.747Z,84.60
2019-03-22T15:19:14.903Z,84.80
2019-03-22T15:21:55.445Z,84.20
2019-03-22T15:24:40.207Z,84.60
2019-03-22T15:27:24.952Z,85.00
2019-03-22T15:30:10.837Z,85.60
2019-03-22T15:32:56.414Z,85.70
2019-03-22T15:35:27.644Z,84.30
2019-03-22T15:38:07.643Z,84.70
2019-03-22T15:40:34.075Z,83.80
2019-03-22T15:43:00.312Z,84.30
2019-03-22T15:45:26.713Z,83.60
2019-03-22T15:47:53.049Z,83.10
2019-03-22T15:50:19.602Z,83.30
2019-03-22T15:52:45.972Z,83.00
2019-03-22T15:55:12.361Z,82.80
2019-03-22T15:57:38.732Z,83.10
2019-03-22T16:00:20.113Z,83.70
2019-03-22T16:02:46.581Z,83.90
2019-03-22T16:05:13.450Z,84.50
2019-03-22T16:07:40.303Z,85.00
2019-03-22T16:10:08.479Z,84.40
2019-03-22T16:12:34.910Z,84.00
2019-03-22T16:15:01.195Z,84.30
2019-03-22T16:17:27.455Z,83.10
2019-03-22T16:19:53.850Z,84.00
2019-03-22T16:22:20.240Z,83.40
2019-03-22T16:24:46.646Z,83.60
2019-03-22T16:27:14.324Z,83.40
2019-03-22T16:29:40.615Z,83.40
2019-03-22T16:32:07.023Z,83.50
2019-03-22T16:34:33.323Z,84.00
2019-03-22T16:36:59.707Z,84.30
2019-03-22T16:39:26.008Z,85.10
2019-03-22T16:41:52.395Z,84.60
2019-03-22T16:44:18.785Z,84.10
2019-03-22T16:46:45.106Z,84.60
2019-03-22T16:49:11.715Z,83.40
2019-03-22T16:51:38.056Z,83.50
2019-03-22T16:54:04.642Z,84.20
2019-03-22T16:56:31.264Z,84.30
2019-03-22T16:58:58.247Z,84.60
2019-03-22T17:01:24.752Z,83.90
2019-03-22T17:03:51.179Z,84.10
2019-03-22T17:06:17.457Z,84.90
2019-03-22T17:08:43.807Z,85.00
2019-03-22T17:11:10.524Z,85.40
2019-03-22T17:13:36.891Z,85.30
2019-03-22T17:16:03.349Z,85.60
2019-03-22T17:18:29.628Z,85.00
2019-03-22T17:20:55.863Z,85.40
2019-03-22T17:23:22.378Z,85.50
2019-03-22T17:25:48.747Z,85.90
2019-03-22T17:28:35.038Z,85.60
2019-03-22T17:31:01.369Z,85.90
2019-03-22T17:33:29.277Z,86.00
2019-03-22T17:35:55.532Z,86.20
2019-03-22T17:38:21.955Z,85.60
2019-03-22T17:40:48.334Z,85.90
2019-03-22T17:43:14.858Z,85.70
2019-03-22T17:45:41.109Z,85.90
2019-03-22T17:48:07.351Z,86.20
2019-03-22T17:50:33.675Z,86.10
2019-03-22T17:53:00.027Z,86.30
2019-03-22T17:55:26.294Z,86.80
2019-03-22T17:57:53.885Z,87.30
2019-03-22T18:00:25.216Z,87.50
2019-03-22T18:02:51.675Z,87.60
2019-03-22T18:05:18.143Z,88.00
2019-03-22T18:07:47.584Z,88.10
2019-03-22T18:10:34.174Z,88.10
2019-03-22T18:13:00.437Z,88.00
2019-03-22T18:15:26.691Z,87.50
2019-03-22T18:17:53.448Z,87.50
2019-03-22T18:20:19.712Z,87.90
2019-03-22T18:22:46.474Z,88.20
2019-03-22T18:25:13.173Z,88.10
2019-03-22T18:27:39.560Z,88.10
2019-03-22T18:30:08.761Z,87.60
2019-03-22T18:32:35.547Z,87.70
2019-03-22T18:35:02.507Z,87.80
2019-03-22T18:37:28.687Z,87.80
2019-03-22T18:39:54.941Z,87.90
2019-03-22T18:42:21.433Z,88.10
2019-03-22T18:44:49.600Z,87.90
2019-03-22T18:47:15.896Z,88.40
2019-03-22T18:49:42.380Z,88.80
2019-03-22T18:52:08.742Z,89.10
2019-03-22T18:54:35.054Z,89.10
2019-03-22T18:57:02.053Z,89.10
2019-03-22T18:59:28.338Z,88.80
2019-03-22T19:01:54.847Z,88.80
2019-03-22T19:04:21.345Z,89.40
2019-03-22T19:06:47.618Z,89.30
2019-03-22T19:09:14.070Z,89.40
2019-03-22T19:11:40.579Z,89.50
2019-03-22T19:14:06.963Z,89.90
2019-03-22T19:16:36.392Z,89.90
2019-03-22T19:19:02.946Z,90.00
2019-03-22T19:21:29.392Z,90.00
2019-03-22T19:23:55.769Z,90.10
2019-03-22T19:26:22.253Z,90.20
2019-03-22T19:28:48.571Z,90.00
2019-03-22T19:31:14.919Z,89.90
2019-03-22T19:33:41.378Z,89.50
2019-03-22T19:36:07.915Z,89.70
2019-03-22T19:38:34.485Z,89.90
2019-03-22T19:41:00.965Z,90.00
2019-03-22T19:43:27.320Z,90.00
2019-03-22T19:45:55.963Z,90.10
2019-03-22T19:48:22.340Z,90.00
2019-03-22T19:50:48.648Z,90.60
2019-03-22T19:53:15.128Z,90.50
2019-03-22T19:55:41.514Z,90.40
2019-03-22T19:58:07.797Z,90.50
2019-03-22T20:00:34.424Z,91.10
2019-03-22T20:03:00.825Z,90.90
2019-03-22T20:05:35.360Z,90.90
2019-03-22T20:08:05.157Z,91.50
2019-03-22T20:10:38.837Z,91.90
2019-03-22T20:13:09.516Z,91.80
2019-03-22T20:15:40.804Z,91.80
2019-03-22T20:18:11.582Z,91.90
2019-03-22T20:20:43.037Z,91.90
2019-03-22T20:23:09.334Z,91.60
2019-03-22T20:25:35.938Z,91.40
2019-03-22T20:28:02.495Z,91.50
2019-03-22T20:30:28.874Z,91.70
2019-03-22T20:32:55.380Z,91.80
2019-03-22T20:35:23.670Z,91.80
2019-03-22T20:37:50.273Z,91.80
2019-03-22T20:40:19.743Z,91.80
2019-03-22T20:42:46.117Z,91.70
2019-03-22T20:45:23.268Z,91.90
2019-03-22T20:47:40.876Z,91.90
2019-03-22T20:50:08.550Z,91.80
2019-03-22T20:52:35.224Z,91.90
2019-03-22T20:55:07.804Z,91.90
2019-03-22T20:57:34.274Z,92.00
2019-03-22T21:00:00.824Z,92.00
2019-03-22T21:02:27.674Z,92.30
2019-03-22T21:04:54.191Z,92.50
2019-03-22T21:07:21.586Z,92.50
2019-03-22T21:09:48.012Z,92.80
2019-03-22T21:12:14.275Z,92.70
2019-03-22T21:14:40.588Z,92.50
2019-03-22T21:17:07.183Z,92.50
2019-03-22T21:19:33.542Z,92.60
2019-03-22T21:21:59.818Z,92.70
2019-03-22T21:24:26.076Z,93.00
2019-03-22T21:26:52.849Z,93.00
2019-03-22T21:29:19.131Z,93.00
2019-03-22T21:31:45.684Z,93.00
2019-03-22T21:34:12.353Z,93.00
2019-03-22T21:36:38.692Z,93.00
2019-03-22T21:39:05.542Z,93.00
2019-03-22T21:41:34.243Z,93.00
2019-03-22T21:44:01.962Z,93.00
2019-03-22T21:46:28.168Z,93.10
2019-03-22T21:48:54.414Z,93.20
2019-03-22T21:51:20.828Z,93.10
2019-03-22T21:53:47.178Z,93.30
2019-03-22T21:56:13.453Z,93.40
2019-03-22T21:58:39.742Z,93.50
2019-03-22T22:01:06.161Z,93.50
2019-03-22T22:03:32.427Z,93.30
2019-03-22T22:05:58.730Z,93.40
2019-03-22T22:08:26.984Z,93.30
2019-03-22T22:10:59.755Z,93.40
2019-03-22T22:13:21.551Z,93.40
2019-03-22T22:15:47.865Z,93.60
2019-03-22T22:18:14.238Z,93.70
2019-03-22T22:20:40.483Z,93.70
2019-03-22T22:23:06.993Z,93.90
2019-03-22T22:25:33.281Z,93.90
2019-03-22T22:27:59.662Z,94.10
2019-03-22T22:30:26.049Z,94.10
2019-03-22T22:32:52.342Z,93.90
2019-03-22T22:35:18.619Z,94.00
2019-03-22T22:37:44.913Z,94.10
2019-03-22T22:40:11.780Z,94.20
2019-03-22T22:42:40.819Z,94.10
2019-03-22T22:45:09.086Z,94.20
2019-03-22T22:47:35.460Z,94.00
2019-03-22T22:50:02.787Z,94.00
2019-03-22T22:52:29.345Z,94.20
2019-03-22T22:54:55.610Z,94.70
2019-03-22T22:57:23.897Z,94.80
2019-03-22T22:59:50.280Z,94.90
2019-03-22T23:02:16.547Z,94.80
2019-03-22T23:04:42.801Z,94.90
2019-03-22T23:07:09.181Z,94.80
2019-03-22T23:09:35.548Z,94.80
2019-03-22T23:12:02.127Z,94.60
2019-03-22T23:14:28.658Z,95.20
2019-03-22T23:16:56.690Z,95.30
2019-03-22T23:19:23.025Z,95.50
2019-03-22T23:21:49.321Z,95.50
2019-03-22T23:24:15.722Z,95.60
2019-03-22T23:26:42.216Z,95.50
2019-03-22T23:29:08.537Z,95.70
2019-03-22T23:31:34.883Z,96.20
2019-03-22T23:34:01.216Z,96.70
2019-03-22T23:36:27.517Z,96.50
2019-03-22T23:38:53.747Z,96.30
2019-03-22T23:41:20.107Z,96.20
2019-03-22T23:43:46.370Z,96.00
2019-03-22T23:46:12.628Z,95.70
2019-03-22T23:48:38.881Z,95.50
2019-03-22T23:51:05.624Z,95.40
2019-03-22T23:53:31.869Z,95.20
2019-03-22T23:55:58.110Z,95.00
2019-03-22T23:58:24.389Z,94.90
